This is the latest recevied weather packets stored in our database for station/object KD9JJA. If no packets are shown the sender has not sent any weather packets the latest 10 day(s).
| Time | Temp. | Humidity | Pressure | Rain* | Wind** | Luminosity | Snow |
|---|---|---|---|---|---|---|---|
| 1777971825 | 14.44° C | 99% | 1010 hPa | 0 mm | - | 0 W/m² | - |
| 1777971522 | 14.44° C | 99% | 1010.1 hPa | 0 mm | - | 0 W/m² | - |
| 1777971220 | 14.44° C | 99% | 1010.4 hPa | 1.78 mm | - | 0 W/m² | - |
| 1777970918 | 14.44° C | 99% | 1010.6 hPa | 1.78 mm | - | 0 W/m² | - |
| 1777970616 | 14.44° C | 99% | 1010.8 hPa | 0 mm | - | 0 W/m² | - |
| 1777970313 | 14.44° C | 99% | 1011.1 hPa | 0 mm | - | 0 W/m² | - |
| 1777970010 | 14.44° C | 99% | 1011 hPa | 0 mm | - | 0 W/m² | - |
| 1777969707 | 14.44° C | 99% | 1010.9 hPa | 0 mm | - | 0 W/m² | - |
| 1777969403 | 14.44° C | 99% | 1011.1 hPa | 0 mm | - | 0 W/m² | - |
| 1777969099 | 14.44° C | 99% | 1010.9 hPa | 0 mm | - | 0 W/m² | - |
| 1777968796 | 14.44° C | 99% | 1010.8 hPa | 0 mm | - | 0 W/m² | - |
| 1777968493 | 14.44° C | 99% | 1010.8 hPa | 0 mm | - | 0 W/m² | - |
| 1777968189 | 14.44° C | 99% | 1010.9 hPa | 0 mm | - | 0 W/m² | - |
| 1777967884 | 14.44° C | 99% | 1010.6 hPa | 0 mm | - | 0 W/m² | - |
| 1777967582 | 14.44° C | 99% | 1010.5 hPa | 0 mm | - | 0 W/m² | - |
| 1777967279 | 15° C | 99% | 1010.6 hPa | 0 mm | - | 0 W/m² | - |
| 1777966976 | 15° C | 99% | 1010.5 hPa | 0 mm | - | 0 W/m² | - |
| 1777966673 | 15° C | 98% | 1010.4 hPa | 0 mm | - | 0 W/m² | - |
| 1777966371 | 15° C | 97% | 1010.1 hPa | 0 mm | - | 0 W/m² | - |
| 1777966068 | 15.56° C | 95% | 1009.7 hPa | 0 mm | - | 0 W/m² | - |
| 1777965764 | 16.11° C | 91% | 1009.3 hPa | 0 mm | - | 0 W/m² | - |
| 1777965460 | 16.67° C | 90% | 1009.2 hPa | 0 mm | - | 0 W/m² | - |
| 1777965157 | 16.67° C | 87% | 1008.5 hPa | 0 mm | - | 0 W/m² | - |
| 1777964854 | 17.78° C | 82% | 1008.2 hPa | 0 mm | - | 0 W/m² | - |
| 1777964550 | 18.33° C | 77% | 1007.8 hPa | 0 mm | - | 0 W/m² | - |
* Rain latest hour (hover to see other rain measurements)
** Current wind speed in m/s (hover to see current wind gust speed)